Candlewick Lake, Illinois
Current Conditions -  °F | °C
As of 10:45 AM on Thursday 27 Nov 2014 (Local Time) from KJVL Reporting Station
Overcast Overcast  
Wind Chill: 12°   Ceiling: 2100
Heat Index: 23°   Visibility: 10mi
Dew Point: 16°   Wind: 12mph
Humidity: 74%   Direction: 310°NW
Pressure: 30.36"   Gusts: 17mph
Location:  42.409°N, 88.8277°W
Report Text: KJVL 271645Z 31010G15KT 10SM OVC021 M05/M09 A3036
Loading
Personal Weather Stations






























Interactive Weather Map New forecast layout! Learn more

10-Day Weather Forecast

Advertisements
Track Severe Weather on mobile